createdAt,value
2023-03-16T00:01:16.765Z,13.82
2023-03-16T00:03:43.899Z,14.57
2023-03-16T00:06:17.196Z,13.77
2023-03-16T00:08:44.553Z,14.02
2023-03-16T00:11:12.218Z,14.18
2023-03-16T00:13:39.350Z,13.88
2023-03-16T00:16:07.681Z,13.95
2023-03-16T00:18:39.025Z,13.95
2023-03-16T00:21:06.771Z,13.48
2023-03-16T00:23:36.009Z,13.20
2023-03-16T00:26:04.528Z,12.90
2023-03-16T00:28:35.355Z,14.38
2023-03-16T00:31:07.557Z,14.05
2023-03-16T00:33:37.611Z,14.05
2023-03-16T00:36:08.255Z,13.77
2023-03-16T00:38:36.719Z,13.48
2023-03-16T00:41:04.949Z,13.75
2023-03-16T00:43:40.693Z,13.35
2023-03-16T00:46:12.467Z,38.22
2023-03-16T00:48:42.468Z,27.77
2023-03-16T00:51:12.886Z,16.13
2023-03-16T00:53:41.075Z,12.15
2023-03-16T00:56:08.631Z,11.70
2023-03-16T00:58:36.610Z,11.52
2023-03-16T01:01:08.119Z,12.63
2023-03-16T01:03:35.838Z,11.80
2023-03-16T01:06:07.016Z,11.38
2023-03-16T01:08:39.892Z,11.70
2023-03-16T01:11:08.776Z,11.05
2023-03-16T01:13:35.918Z,11.32
2023-03-16T01:16:04.088Z,10.52
2023-03-16T01:18:34.251Z,12.65
2023-03-16T01:21:03.476Z,12.63
2023-03-16T01:23:31.387Z,12.85
2023-03-16T01:25:59.261Z,12.82
2023-03-16T01:28:27.723Z,13.10
2023-03-16T01:30:57.665Z,12.68
2023-03-16T01:33:25.848Z,15.10
2023-03-16T01:35:56.673Z,13.90
2023-03-16T01:38:24.414Z,13.32
2023-03-16T01:40:52.188Z,15.85
2023-03-16T01:43:20.220Z,15.05
2023-03-16T01:46:08.204Z,15.70
2023-03-16T01:48:44.601Z,17.10
2023-03-16T01:51:25.483Z,17.67
2023-03-16T01:53:55.644Z,16.45
2023-03-16T01:56:25.750Z,18.02
2023-03-16T01:58:54.124Z,16.63
2023-03-16T02:01:21.313Z,17.00
2023-03-16T02:03:48.449Z,17.55
2023-03-16T02:06:18.076Z,16.67
2023-03-16T02:08:46.061Z,16.20
2023-03-16T02:11:18.042Z,17.15
2023-03-16T02:13:46.253Z,16.83
2023-03-16T02:16:19.331Z,17.13
2023-03-16T02:18:47.690Z,17.48
2023-03-16T02:21:20.877Z,16.88
2023-03-16T02:23:50.706Z,16.77
2023-03-16T02:26:22.893Z,15.07
2023-03-16T02:29:07.724Z,16.25
2023-03-16T02:31:35.239Z,15.43
2023-03-16T02:34:02.701Z,15.00
2023-03-16T02:36:30.314Z,16.77
2023-03-16T02:38:57.405Z,14.73
2023-03-16T02:41:24.549Z,14.07
2023-03-16T02:43:54.429Z,14.48
2023-03-16T02:46:23.987Z,13.85
2023-03-16T02:49:04.213Z,13.07
2023-03-16T02:51:32.349Z,13.52
2023-03-16T02:53:59.604Z,12.45
2023-03-16T02:56:26.764Z,12.60
2023-03-16T02:58:54.108Z,13.30
2023-03-16T03:01:21.668Z,12.98
2023-03-16T03:03:48.795Z,12.95
2023-03-16T03:06:15.869Z,13.35
2023-03-16T03:08:42.993Z,12.52
2023-03-16T03:11:11.270Z,11.60
2023-03-16T03:13:39.241Z,11.25
2023-03-16T03:16:06.600Z,11.07
2023-03-16T03:18:34.824Z,11.30
2023-03-16T03:21:01.995Z,11.90
2023-03-16T03:23:29.091Z,11.60
2023-03-16T03:26:00.013Z,11.32
2023-03-16T03:28:27.380Z,11.70
2023-03-16T03:30:54.598Z,11.65
2023-03-16T03:33:24.592Z,11.18
2023-03-16T03:35:58.771Z,11.15
2023-03-16T03:38:26.438Z,11.68
2023-03-16T03:40:54.521Z,10.82
2023-03-16T03:43:22.419Z,10.80
2023-03-16T03:45:49.623Z,10.70
2023-03-16T03:48:16.787Z,11.15
2023-03-16T03:50:43.933Z,10.93
2023-03-16T03:53:11.151Z,9.57
2023-03-16T03:55:38.285Z,10.48
2023-03-16T03:58:05.367Z,11.45
2023-03-16T04:00:32.467Z,8.98
2023-03-16T04:02:59.764Z,10.88
2023-03-16T04:05:27.541Z,11.95
2023-03-16T04:07:57.320Z,10.63
2023-03-16T04:10:25.341Z,10.73
2023-03-16T04:12:52.520Z,10.85
2023-03-16T04:15:20.172Z,9.70
2023-03-16T04:17:47.315Z,11.43
2023-03-16T04:20:14.700Z,12.93
2023-03-16T04:22:42.954Z,13.63
2023-03-16T04:25:11.559Z,11.40
2023-03-16T04:27:38.831Z,12.45
2023-03-16T04:30:06.805Z,11.70
2023-03-16T04:32:34.887Z,11.38
2023-03-16T04:35:02.112Z,12.05
2023-03-16T04:37:29.426Z,12.38
2023-03-16T04:39:56.593Z,12.45
2023-03-16T04:42:23.771Z,12.90
2023-03-16T04:44:50.841Z,12.30
2023-03-16T04:47:18.067Z,11.88
2023-03-16T04:49:45.695Z,11.68
2023-03-16T04:52:12.963Z,12.27
2023-03-16T04:54:40.124Z,11.70
2023-03-16T04:57:08.466Z,11.68
2023-03-16T04:59:35.640Z,12.45
2023-03-16T05:02:04.050Z,11.77
2023-03-16T05:04:31.163Z,13.55
2023-03-16T05:06:58.224Z,13.10
2023-03-16T05:09:25.872Z,15.55
2023-03-16T05:11:52.971Z,13.68
2023-03-16T05:14:20.104Z,14.30
2023-03-16T05:16:47.188Z,13.88
2023-03-16T05:19:14.300Z,15.65
2023-03-16T05:21:41.600Z,14.00
2023-03-16T05:24:09.187Z,17.10
2023-03-16T05:26:36.333Z,15.82
2023-03-16T05:29:03.467Z,14.35
2023-03-16T05:31:33.969Z,15.00
2023-03-16T05:34:02.359Z,14.45
2023-03-16T05:36:29.473Z,13.75
2023-03-16T05:38:56.628Z,14.65
2023-03-16T05:41:23.865Z,15.07
2023-03-16T05:43:50.994Z,14.95
2023-03-16T05:46:20.664Z,14.98
2023-03-16T05:48:48.007Z,15.40
2023-03-16T05:51:15.196Z,13.50
2023-03-16T05:53:42.354Z,13.77
2023-03-16T05:56:09.726Z,15.18
2023-03-16T05:58:37.049Z,14.02
2023-03-16T06:01:05.729Z,14.38
2023-03-16T06:03:32.876Z,15.43
2023-03-16T06:05:59.963Z,13.50
2023-03-16T06:08:27.330Z,12.57
2023-03-16T06:10:54.473Z,11.27
2023-03-16T06:13:21.540Z,13.52
2023-03-16T06:15:48.719Z,13.02
2023-03-16T06:18:15.892Z,11.63
2023-03-16T06:20:43.627Z,11.25
2023-03-16T06:23:10.802Z,11.82
2023-03-16T06:25:40.591Z,11.50
2023-03-16T06:28:08.377Z,12.02
2023-03-16T06:30:35.423Z,11.68
2023-03-16T06:33:02.545Z,10.35
2023-03-16T06:35:29.716Z,10.77
2023-03-16T06:37:56.813Z,11.40
2023-03-16T06:40:24.068Z,17.48
2023-03-16T06:42:51.486Z,20.40
2023-03-16T06:45:22.058Z,15.32
2023-03-16T06:47:49.604Z,11.90
2023-03-16T06:50:16.802Z,11.48
2023-03-16T06:52:43.958Z,9.73
2023-03-16T06:55:12.873Z,9.27
2023-03-16T06:57:40.090Z,9.65
2023-03-16T07:00:07.675Z,10.05
2023-03-16T07:02:35.780Z,9.55
2023-03-16T07:05:03.312Z,9.63
2023-03-16T07:07:30.432Z,9.18
2023-03-16T07:09:57.563Z,9.55
2023-03-16T07:12:24.736Z,11.05
2023-03-16T07:14:54.070Z,10.10
2023-03-16T07:17:21.664Z,10.27
2023-03-16T07:19:48.759Z,10.15
2023-03-16T07:22:15.884Z,11.48
2023-03-16T07:24:44.198Z,10.35
2023-03-16T07:27:12.624Z,9.55
2023-03-16T07:29:39.843Z,9.30
2023-03-16T07:32:07.129Z,9.48
2023-03-16T07:34:34.291Z,9.57
2023-03-16T07:37:02.202Z,9.60
2023-03-16T07:39:29.614Z,9.13
2023-03-16T07:41:56.776Z,8.75
2023-03-16T07:44:23.845Z,9.02
2023-03-16T07:46:51.497Z,8.80
2023-03-16T07:49:18.664Z,8.20
2023-03-16T07:51:46.021Z,8.25
2023-03-16T07:54:14.005Z,7.85
2023-03-16T07:56:48.948Z,7.40
2023-03-16T07:59:17.421Z,8.40
2023-03-16T08:01:46.289Z,7.60
2023-03-16T08:04:13.407Z,8.57
2023-03-16T08:06:40.526Z,7.25
2023-03-16T08:09:07.590Z,6.90
2023-03-16T08:11:34.987Z,8.15
2023-03-16T08:14:02.076Z,7.60
2023-03-16T08:16:29.442Z,7.32
2023-03-16T08:18:57.565Z,10.18
2023-03-16T08:21:25.224Z,6.57
2023-03-16T08:23:52.378Z,8.30
2023-03-16T08:26:22.680Z,7.25
2023-03-16T08:28:52.083Z,8.07
2023-03-16T08:31:20.293Z,6.68
2023-03-16T08:33:49.808Z,8.32
2023-03-16T08:36:17.924Z,6.55
2023-03-16T08:39:03.746Z,6.70
2023-03-16T08:41:34.722Z,7.05
2023-03-16T08:44:03.091Z,7.97
2023-03-16T08:46:30.891Z,6.82
2023-03-16T08:48:58.115Z,6.65
2023-03-16T08:51:25.283Z,7.32
2023-03-16T08:53:52.850Z,6.78
2023-03-16T08:56:20.015Z,7.28
2023-03-16T08:58:47.180Z,6.03
2023-03-16T09:01:15.773Z,6.45
2023-03-16T09:03:42.937Z,5.70
2023-03-16T09:06:11.672Z,6.90
2023-03-16T09:08:41.680Z,5.80
2023-03-16T09:11:11.209Z,6.50
2023-03-16T09:13:39.307Z,5.57
2023-03-16T09:16:07.671Z,6.13
2023-03-16T09:18:35.399Z,5.80
2023-03-16T09:21:04.931Z,5.80
2023-03-16T09:23:32.849Z,6.55
2023-03-16T09:26:01.324Z,5.78
2023-03-16T09:28:28.956Z,6.38
2023-03-16T09:33:38.705Z,7.05
2023-03-16T09:36:06.058Z,5.50
2023-03-16T09:38:33.576Z,6.75
2023-03-16T09:41:11.509Z,5.72
2023-03-16T09:43:38.635Z,5.70
2023-03-16T09:46:25.979Z,5.75
2023-03-16T09:48:54.302Z,5.07
2023-03-16T09:51:24.294Z,4.40
2023-03-16T09:53:53.599Z,5.65
2023-03-16T09:56:23.198Z,4.82
2023-03-16T09:58:50.958Z,5.10
2023-03-16T10:01:24.288Z,5.53
2023-03-16T10:04:10.019Z,5.15
2023-03-16T10:06:48.321Z,5.25
2023-03-16T10:09:26.132Z,4.40
2023-03-16T10:11:57.905Z,4.60
2023-03-16T10:14:24.975Z,5.32
2023-03-16T10:17:03.096Z,4.75
2023-03-16T10:19:44.463Z,4.65
2023-03-16T10:22:17.698Z,4.38
2023-03-16T10:24:57.078Z,4.15
2023-03-16T10:27:29.375Z,4.45
2023-03-16T10:29:56.479Z,4.50
2023-03-16T10:32:29.539Z,4.65
2023-03-16T10:35:04.189Z,3.83
2023-03-16T10:37:31.551Z,3.50
2023-03-16T10:40:00.791Z,4.03
2023-03-16T10:42:28.573Z,3.85
2023-03-16T10:45:01.875Z,3.90
2023-03-16T10:47:31.812Z,3.35
2023-03-16T10:49:59.445Z,3.55
2023-03-16T10:52:29.705Z,3.78
2023-03-16T10:55:01.247Z,3.95
2023-03-16T10:57:33.491Z,4.03
2023-03-16T11:00:07.173Z,4.53
2023-03-16T11:02:35.465Z,3.85
2023-03-16T11:05:32.337Z,2.97
2023-03-16T11:08:05.460Z,3.00
2023-03-16T11:10:40.550Z,4.13
2023-03-16T11:13:14.693Z,2.92
2023-03-16T11:15:47.891Z,3.00
2023-03-16T11:18:26.679Z,2.97
2023-03-16T11:20:55.184Z,3.22
2023-03-16T11:23:27.925Z,3.20
2023-03-16T11:28:43.365Z,2.50
2023-03-16T11:31:24.294Z,3.08
2023-03-16T11:33:54.310Z,3.00
2023-03-16T11:36:43.195Z,2.58
2023-03-16T11:39:26.183Z,2.40
2023-03-16T11:44:23.605Z,2.13
2023-03-16T11:46:59.541Z,2.47
2023-03-16T11:49:29.460Z,2.40
2023-03-16T11:52:17.322Z,2.33
2023-03-16T11:54:53.807Z,2.50
2023-03-16T11:57:20.971Z,2.80
2023-03-16T12:00:06.483Z,2.42
2023-03-16T12:02:34.002Z,4.03
2023-03-16T12:05:07.722Z,2.90
2023-03-16T12:07:38.146Z,2.60
2023-03-16T12:10:22.249Z,2.33
2023-03-16T12:12:53.540Z,3.13
2023-03-16T12:15:39.140Z,2.60
2023-03-16T12:18:17.673Z,2.80
2023-03-16T12:21:04.117Z,3.25
2023-03-16T12:23:31.920Z,2.92
2023-03-16T12:26:00.101Z,2.58
2023-03-16T12:28:29.030Z,2.75
2023-03-16T12:31:03.322Z,2.88
2023-03-16T12:33:45.578Z,2.33
2023-03-16T12:36:28.520Z,2.90
2023-03-16T12:41:25.450Z,3.03
2023-03-16T12:43:52.635Z,3.13
2023-03-16T12:46:25.073Z,3.03
2023-03-16T12:48:54.808Z,3.10
2023-03-16T12:51:21.992Z,2.33
2023-03-16T12:53:51.950Z,3.70
2023-03-16T12:56:39.307Z,3.35
2023-03-16T12:59:07.948Z,3.20
2023-03-16T13:01:39.720Z,3.20
2023-03-16T13:04:12.872Z,3.47
2023-03-16T13:06:44.202Z,3.30
2023-03-16T13:09:12.228Z,3.42
2023-03-16T13:11:50.292Z,2.83
2023-03-16T13:14:31.528Z,2.92
2023-03-16T13:17:06.445Z,3.75
2023-03-16T13:19:37.839Z,3.85
2023-03-16T13:22:07.045Z,2.95
2023-03-16T13:24:39.976Z,2.80
2023-03-16T13:27:16.380Z,3.00
2023-03-16T13:29:53.204Z,2.92
2023-03-16T13:32:21.715Z,3.10
2023-03-16T13:34:50.697Z,3.38
2023-03-16T13:37:19.861Z,3.35
2023-03-16T13:39:56.428Z,3.05
2023-03-16T13:42:24.562Z,3.00
2023-03-16T13:44:56.679Z,3.22
2023-03-16T13:47:26.501Z,3.22
2023-03-16T13:50:00.626Z,3.40
2023-03-16T13:52:27.789Z,3.30
2023-03-16T13:54:55.232Z,3.88
2023-03-16T13:57:24.142Z,3.95
2023-03-16T13:59:53.549Z,3.55
2023-03-16T14:02:23.147Z,3.42
2023-03-16T14:04:50.362Z,3.75
2023-03-16T14:07:18.988Z,4.82
2023-03-16T14:09:50.635Z,4.10
2023-03-16T14:12:19.933Z,4.95
2023-03-16T14:14:50.142Z,4.65
2023-03-16T14:17:19.667Z,4.80
2023-03-16T14:19:48.604Z,5.07
2023-03-16T14:22:17.791Z,4.70
2023-03-16T14:24:46.044Z,5.70
2023-03-16T14:27:20.927Z,4.38
2023-03-16T14:29:53.162Z,5.03
2023-03-16T14:32:28.187Z,4.72
2023-03-16T14:35:03.262Z,4.97
2023-03-16T14:37:37.446Z,5.15
2023-03-16T14:40:08.971Z,4.55
2023-03-16T14:42:36.714Z,4.30
2023-03-16T14:45:07.535Z,4.50
2023-03-16T14:47:41.101Z,4.65
2023-03-16T14:50:09.801Z,4.97
2023-03-16T14:52:37.158Z,4.45
2023-03-16T14:55:11.511Z,4.40
2023-03-16T14:57:40.433Z,4.95
2023-03-16T15:00:10.254Z,4.53
2023-03-16T15:02:37.760Z,4.40
2023-03-16T15:05:05.152Z,3.88
2023-03-16T15:07:34.871Z,3.30
2023-03-16T15:10:09.840Z,4.82
2023-03-16T15:12:37.913Z,3.53
2023-03-16T15:15:22.614Z,4.70
2023-03-16T15:17:51.262Z,3.53
2023-03-16T15:20:24.247Z,4.18
2023-03-16T15:22:52.986Z,3.88
2023-03-16T15:25:23.293Z,3.55
2023-03-16T15:27:50.794Z,3.78
2023-03-16T15:30:19.913Z,3.50
2023-03-16T15:32:47.091Z,3.38
2023-03-16T15:35:14.275Z,3.13
2023-03-16T15:37:41.645Z,3.75
2023-03-16T15:40:38.216Z,4.32
2023-03-16T15:43:07.287Z,4.22
2023-03-16T15:45:34.481Z,3.47
2023-03-16T15:48:01.624Z,3.30
2023-03-16T15:50:29.145Z,3.53
2023-03-16T15:52:59.320Z,3.80
2023-03-16T15:55:39.547Z,3.45
2023-03-16T15:58:07.166Z,4.88
2023-03-16T16:00:38.187Z,3.40
2023-03-16T16:03:06.573Z,3.50
2023-03-16T16:05:35.534Z,3.85
2023-03-16T16:08:03.701Z,3.75
2023-03-16T16:10:32.269Z,3.20
2023-03-16T16:13:00.008Z,3.30
2023-03-16T16:15:29.639Z,4.50
2023-03-16T16:18:19.808Z,3.88
2023-03-16T16:20:45.210Z,3.75
2023-03-16T16:23:12.678Z,4.35
2023-03-16T16:25:41.462Z,3.88
2023-03-16T16:28:16.429Z,3.38
2023-03-16T16:30:44.242Z,5.07
2023-03-16T16:33:24.834Z,3.50
2023-03-16T16:35:52.817Z,3.35
2023-03-16T16:38:20.180Z,3.75
2023-03-16T16:40:47.645Z,4.47
2023-03-16T16:43:35.059Z,4.05
2023-03-16T16:46:04.786Z,3.78
2023-03-16T16:48:36.837Z,4.07
2023-03-16T16:51:04.771Z,4.40
2023-03-16T16:53:31.940Z,4.28
2023-03-16T16:55:59.252Z,4.43
2023-03-16T16:58:26.461Z,3.83
2023-03-16T17:00:55.188Z,4.03
2023-03-16T17:03:27.396Z,4.93
2023-03-16T17:05:57.905Z,4.10
2023-03-16T17:08:26.004Z,4.03
2023-03-16T17:10:53.849Z,3.78
2023-03-16T17:13:24.728Z,4.00
2023-03-16T17:15:51.870Z,3.47
2023-03-16T17:18:19.676Z,4.25
2023-03-16T17:20:46.919Z,3.90
2023-03-16T17:23:27.518Z,4.55
2023-03-16T17:25:55.634Z,4.22
2023-03-16T17:28:23.677Z,4.35
2023-03-16T17:30:51.105Z,4.38
2023-03-16T17:33:19.514Z,3.97
2023-03-16T17:35:47.893Z,3.97
2023-03-16T17:38:19.392Z,4.60
2023-03-16T17:40:46.843Z,3.78
2023-03-16T17:43:16.168Z,4.10
2023-03-16T17:45:44.067Z,4.15
2023-03-16T17:48:18.814Z,4.03
2023-03-16T17:50:46.141Z,4.80
2023-03-16T17:53:15.066Z,5.38
2023-03-16T17:55:42.866Z,4.72
2023-03-16T17:58:28.985Z,4.20
2023-03-16T18:00:56.693Z,4.38
2023-03-16T18:03:25.706Z,4.00
2023-03-16T18:05:53.235Z,4.30
2023-03-16T18:08:25.105Z,4.82
2023-03-16T18:10:55.723Z,4.60
2023-03-16T18:13:24.375Z,5.50
2023-03-16T18:15:51.990Z,4.68
2023-03-16T18:18:21.351Z,4.80
2023-03-16T18:20:50.702Z,5.47
2023-03-16T18:23:27.724Z,4.55
2023-03-16T18:25:55.834Z,4.88
2023-03-16T18:28:23.291Z,6.05
2023-03-16T18:30:54.980Z,6.63
2023-03-16T18:33:27.615Z,4.35
2023-03-16T18:35:56.807Z,5.32
2023-03-16T18:38:30.147Z,4.50
2023-03-16T18:40:58.267Z,4.72
2023-03-16T18:43:27.236Z,5.30
2023-03-16T18:45:54.990Z,4.70
2023-03-16T18:48:33.316Z,5.72
2023-03-16T18:51:00.983Z,5.18
2023-03-16T18:53:29.551Z,5.55
2023-03-16T18:55:57.672Z,5.40
2023-03-16T18:58:25.524Z,5.60
2023-03-16T19:00:57.540Z,5.47
2023-03-16T19:03:32.190Z,6.18
2023-03-16T19:06:00.455Z,5.32
2023-03-16T19:08:28.550Z,5.47
2023-03-16T19:11:01.107Z,6.82
2023-03-16T19:13:28.403Z,6.07
2023-03-16T19:15:57.572Z,6.65
2023-03-16T19:18:26.110Z,5.75
2023-03-16T19:20:53.921Z,6.47
2023-03-16T19:23:26.941Z,6.72
2023-03-16T19:25:54.518Z,7.32
2023-03-16T19:28:22.585Z,7.63
2023-03-16T19:30:49.800Z,7.78
2023-03-16T19:33:18.929Z,7.85
2023-03-16T19:35:51.735Z,8.38
2023-03-16T19:38:19.813Z,7.72
2023-03-16T19:40:48.091Z,7.25
2023-03-16T19:43:17.257Z,7.55
2023-03-16T19:45:44.525Z,7.03
2023-03-16T19:48:24.499Z,7.55
2023-03-16T19:50:52.034Z,6.45
2023-03-16T19:53:20.696Z,7.75
2023-03-16T19:55:48.373Z,7.90
2023-03-16T19:58:19.023Z,7.22
2023-03-16T20:00:47.099Z,11.55
2023-03-16T20:03:14.477Z,10.95
2023-03-16T20:05:41.583Z,8.88
2023-03-16T20:08:22.891Z,7.95
2023-03-16T20:10:50.281Z,8.48
2023-03-16T20:13:17.756Z,9.27
2023-03-16T20:15:45.352Z,9.18
2023-03-16T20:18:16.178Z,7.72
2023-03-16T20:20:43.984Z,8.18
2023-03-16T20:23:18.662Z,8.07
2023-03-16T20:25:46.604Z,8.43
2023-03-16T20:28:21.605Z,9.05
2023-03-16T20:30:49.144Z,9.70
2023-03-16T20:33:22.771Z,8.95
2023-03-16T20:35:53.382Z,7.65
2023-03-16T20:38:20.911Z,8.30
2023-03-16T20:40:50.253Z,8.57
2023-03-16T20:43:20.513Z,7.50
2023-03-16T20:45:48.083Z,7.63
2023-03-16T20:48:16.216Z,7.43
2023-03-16T20:50:43.356Z,7.05
2023-03-16T20:53:10.519Z,6.95
2023-03-16T20:55:37.824Z,6.97
2023-03-16T20:58:12.070Z,6.63
2023-03-16T21:00:40.016Z,6.68
2023-03-16T21:03:16.833Z,7.07
2023-03-16T21:05:44.624Z,6.53
2023-03-16T21:08:12.720Z,6.93
2023-03-16T21:10:40.049Z,7.78
2023-03-16T21:13:07.265Z,8.10
2023-03-16T21:15:34.472Z,7.70
2023-03-16T21:18:02.947Z,7.75
2023-03-16T21:20:32.182Z,6.82
2023-03-16T21:22:59.803Z,6.18
2023-03-16T21:25:32.248Z,7.85
2023-03-16T21:28:01.605Z,6.63
2023-03-16T21:30:39.387Z,6.85
2023-03-16T21:33:13.064Z,7.13
2023-03-16T21:35:40.265Z,8.20
2023-03-16T21:38:13.206Z,11.77
2023-03-16T21:40:40.369Z,13.55
2023-03-16T21:43:10.127Z,11.45
2023-03-16T21:45:39.308Z,7.47
2023-03-16T21:48:06.598Z,9.07
2023-03-16T21:50:35.147Z,8.80
2023-03-16T21:53:02.421Z,7.63
2023-03-16T21:55:30.649Z,7.90
2023-03-16T21:57:59.304Z,7.32
2023-03-16T22:00:28.929Z,10.32
2023-03-16T22:02:57.734Z,9.18
2023-03-16T22:05:38.634Z,8.35
2023-03-16T22:08:19.492Z,8.20
2023-03-16T22:10:46.990Z,9.10
2023-03-16T22:13:14.112Z,7.63
2023-03-16T22:15:42.613Z,6.05
2023-03-16T22:18:19.131Z,6.25
2023-03-16T22:20:46.494Z,5.97
2023-03-16T22:23:34.187Z,5.70
2023-03-16T22:26:02.459Z,5.93
2023-03-16T22:28:29.715Z,5.82
2023-03-16T22:30:57.959Z,6.22
2023-03-16T22:33:37.597Z,6.85
2023-03-16T22:36:08.275Z,6.93
2023-03-16T22:38:36.452Z,6.60
2023-03-16T22:41:03.588Z,6.00
2023-03-16T22:43:31.996Z,6.10
2023-03-16T22:45:59.767Z,6.00
2023-03-16T22:48:27.746Z,6.15
2023-03-16T22:50:55.488Z,4.93
2023-03-16T22:53:29.014Z,5.07
2023-03-16T22:55:57.192Z,5.30
2023-03-16T22:58:28.294Z,5.13
2023-03-16T23:00:56.169Z,5.28
2023-03-16T23:03:23.728Z,4.40
2023-03-16T23:05:51.677Z,4.88
2023-03-16T23:08:20.297Z,4.82
2023-03-16T23:10:47.700Z,4.68
2023-03-16T23:13:18.551Z,5.07
2023-03-16T23:15:46.631Z,4.45
2023-03-16T23:18:20.813Z,4.82
2023-03-16T23:20:48.766Z,4.82
2023-03-16T23:23:16.500Z,4.40
2023-03-16T23:25:44.757Z,5.30
2023-03-16T23:28:13.176Z,4.65
2023-03-16T23:30:40.642Z,4.85
2023-03-16T23:33:07.854Z,4.97
2023-03-16T23:35:35.267Z,4.78
2023-03-16T23:38:02.938Z,4.50
2023-03-16T23:40:31.011Z,4.80
2023-03-16T23:43:02.041Z,4.70
2023-03-16T23:45:34.276Z,4.68
2023-03-16T23:48:03.068Z,4.93
2023-03-16T23:50:31.913Z,4.30
2023-03-16T23:52:59.412Z,4.55
2023-03-16T23:55:26.982Z,4.15
2023-03-16T23:57:54.159Z,4.20
